sensor_id;sensor_type;location;lat;lon;timestamp;P1;durP1;ratioP1;P2;durP2;ratioP2
6485;SDS011;3276;48.490;9.222;2022-07-04T00:02:19;5.10;;;4.80;;
6485;SDS011;3276;48.490;9.222;2022-07-04T00:04:44;4.03;;;3.77;;
6485;SDS011;3276;48.490;9.222;2022-07-04T00:07:10;3.93;;;3.57;;
6485;SDS011;3276;48.490;9.222;2022-07-04T00:09:36;4.17;;;3.87;;
6485;SDS011;3276;48.490;9.222;2022-07-04T00:12:01;5.70;;;3.77;;
6485;SDS011;3276;48.490;9.222;2022-07-04T00:14:27;4.20;;;3.80;;
6485;SDS011;3276;48.490;9.222;2022-07-04T00:16:52;4.33;;;4.00;;
6485;SDS011;3276;48.490;9.222;2022-07-04T00:19:18;3.87;;;3.67;;
6485;SDS011;3276;48.490;9.222;2022-07-04T00:21:44;4.07;;;3.77;;
6485;SDS011;3276;48.490;9.222;2022-07-04T00:24:10;4.33;;;4.03;;
6485;SDS011;3276;48.490;9.222;2022-07-04T00:26:36;4.10;;;3.73;;
6485;SDS011;3276;48.490;9.222;2022-07-04T00:29:02;4.07;;;3.77;;
6485;SDS011;3276;48.490;9.222;2022-07-04T00:31:27;3.57;;;3.27;;
6485;SDS011;3276;48.490;9.222;2022-07-04T00:33:53;3.50;;;3.30;;
6485;SDS011;3276;48.490;9.222;2022-07-04T00:36:18;4.33;;;3.93;;
6485;SDS011;3276;48.490;9.222;2022-07-04T00:38:44;3.90;;;3.60;;
6485;SDS011;3276;48.490;9.222;2022-07-04T00:41:10;4.10;;;3.77;;
6485;SDS011;3276;48.490;9.222;2022-07-04T00:43:35;3.70;;;3.40;;
6485;SDS011;3276;48.490;9.222;2022-07-04T00:46:04;3.00;;;2.80;;
6485;SDS011;3276;48.490;9.222;2022-07-04T00:48:32;2.87;;;2.67;;
6485;SDS011;3276;48.490;9.222;2022-07-04T00:50:58;3.13;;;2.80;;
6485;SDS011;3276;48.490;9.222;2022-07-04T00:53:24;2.80;;;2.60;;
6485;SDS011;3276;48.490;9.222;2022-07-04T00:55:50;3.00;;;2.80;;
6485;SDS011;3276;48.490;9.222;2022-07-04T00:58:20;3.47;;;3.17;;
6485;SDS011;3276;48.490;9.222;2022-07-04T01:00:47;3.20;;;2.90;;
6485;SDS011;3276;48.490;9.222;2022-07-04T01:03:14;3.80;;;3.50;;
6485;SDS011;3276;48.490;9.222;2022-07-04T01:05:40;4.30;;;3.03;;
6485;SDS011;3276;48.490;9.222;2022-07-04T01:08:06;3.50;;;3.10;;
6485;SDS011;3276;48.490;9.222;2022-07-04T01:10:32;3.20;;;3.00;;
6485;SDS011;3276;48.490;9.222;2022-07-04T01:12:58;4.27;;;3.23;;
6485;SDS011;3276;48.490;9.222;2022-07-04T01:15:24;4.67;;;3.80;;
6485;SDS011;3276;48.490;9.222;2022-07-04T01:17:50;3.50;;;3.27;;
6485;SDS011;3276;48.490;9.222;2022-07-04T01:20:16;3.97;;;3.60;;
6485;SDS011;3276;48.490;9.222;2022-07-04T01:22:42;3.30;;;3.10;;
6485;SDS011;3276;48.490;9.222;2022-07-04T01:25:08;4.03;;;3.23;;
6485;SDS011;3276;48.490;9.222;2022-07-04T01:27:34;3.60;;;3.30;;
6485;SDS011;3276;48.490;9.222;2022-07-04T01:30:00;3.60;;;3.30;;
6485;SDS011;3276;48.490;9.222;2022-07-04T01:32:26;3.77;;;3.37;;
6485;SDS011;3276;48.490;9.222;2022-07-04T01:34:51;3.83;;;3.23;;
6485;SDS011;3276;48.490;9.222;2022-07-04T01:37:17;4.03;;;3.47;;
6485;SDS011;3276;48.490;9.222;2022-07-04T01:39:43;3.17;;;2.97;;
6485;SDS011;3276;48.490;9.222;2022-07-04T01:42:08;3.00;;;2.80;;
6485;SDS011;3276;48.490;9.222;2022-07-04T01:44:34;5.97;;;3.43;;
6485;SDS011;3276;48.490;9.222;2022-07-04T01:47:00;5.00;;;2.90;;
6485;SDS011;3276;48.490;9.222;2022-07-04T01:49:26;3.53;;;3.20;;
6485;SDS011;3276;48.490;9.222;2022-07-04T01:51:52;4.53;;;3.77;;
6485;SDS011;3276;48.490;9.222;2022-07-04T01:54:18;5.90;;;3.20;;
6485;SDS011;3276;48.490;9.222;2022-07-04T01:56:44;3.10;;;2.90;;
6485;SDS011;3276;48.490;9.222;2022-07-04T01:59:10;3.63;;;3.33;;
6485;SDS011;3276;48.490;9.222;2022-07-04T02:01:36;5.10;;;3.23;;
6485;SDS011;3276;48.490;9.222;2022-07-04T02:04:03;3.50;;;3.20;;
6485;SDS011;3276;48.490;9.222;2022-07-04T02:06:30;3.40;;;3.10;;
6485;SDS011;3276;48.490;9.222;2022-07-04T02:08:57;5.70;;;2.77;;
6485;SDS011;3276;48.490;9.222;2022-07-04T02:11:41;3.10;;;2.80;;
6485;SDS011;3276;48.490;9.222;2022-07-04T02:14:30;3.40;;;2.80;;
6485;SDS011;3276;48.490;9.222;2022-07-04T02:16:57;3.43;;;3.13;;
6485;SDS011;3276;48.490;9.222;2022-07-04T02:19:22;3.33;;;2.97;;
6485;SDS011;3276;48.490;9.222;2022-07-04T02:21:48;7.10;;;3.37;;
6485;SDS011;3276;48.490;9.222;2022-07-04T02:24:14;3.90;;;2.93;;
6485;SDS011;3276;48.490;9.222;2022-07-04T02:26:39;3.27;;;2.97;;
6485;SDS011;3276;48.490;9.222;2022-07-04T02:29:05;3.50;;;2.70;;
6485;SDS011;3276;48.490;9.222;2022-07-04T02:31:30;2.90;;;2.70;;
6485;SDS011;3276;48.490;9.222;2022-07-04T02:33:56;3.07;;;2.87;;
6485;SDS011;3276;48.490;9.222;2022-07-04T02:36:21;2.77;;;2.57;;
6485;SDS011;3276;48.490;9.222;2022-07-04T02:38:47;3.13;;;2.93;;
6485;SDS011;3276;48.490;9.222;2022-07-04T02:41:13;7.93;;;3.93;;
6485;SDS011;3276;48.490;9.222;2022-07-04T02:43:38;3.57;;;2.97;;
6485;SDS011;3276;48.490;9.222;2022-07-04T02:46:04;3.37;;;3.13;;
6485;SDS011;3276;48.490;9.222;2022-07-04T02:48:29;4.73;;;3.33;;
6485;SDS011;3276;48.490;9.222;2022-07-04T02:50:55;3.60;;;3.07;;
6485;SDS011;3276;48.490;9.222;2022-07-04T02:53:20;3.60;;;3.30;;
6485;SDS011;3276;48.490;9.222;2022-07-04T02:55:46;2.93;;;2.73;;
6485;SDS011;3276;48.490;9.222;2022-07-04T02:58:11;3.43;;;3.13;;
6485;SDS011;3276;48.490;9.222;2022-07-04T03:00:37;2.77;;;2.57;;
6485;SDS011;3276;48.490;9.222;2022-07-04T03:03:02;4.57;;;2.90;;
6485;SDS011;3276;48.490;9.222;2022-07-04T03:05:28;3.87;;;3.57;;
6485;SDS011;3276;48.490;9.222;2022-07-04T03:07:56;3.03;;;2.77;;
6485;SDS011;3276;48.490;9.222;2022-07-04T03:10:22;3.37;;;3.07;;
6485;SDS011;3276;48.490;9.222;2022-07-04T03:12:48;3.90;;;3.60;;
6485;SDS011;3276;48.490;9.222;2022-07-04T03:15:13;3.20;;;2.90;;
6485;SDS011;3276;48.490;9.222;2022-07-04T03:17:39;3.17;;;2.87;;
6485;SDS011;3276;48.490;9.222;2022-07-04T03:20:04;3.40;;;3.10;;
6485;SDS011;3276;48.490;9.222;2022-07-04T03:22:31;5.57;;;3.60;;
6485;SDS011;3276;48.490;9.222;2022-07-04T03:24:56;3.10;;;2.90;;
6485;SDS011;3276;48.490;9.222;2022-07-04T03:27:22;4.10;;;3.77;;
6485;SDS011;3276;48.490;9.222;2022-07-04T03:29:47;3.60;;;3.40;;
6485;SDS011;3276;48.490;9.222;2022-07-04T03:32:13;4.13;;;3.73;;
6485;SDS011;3276;48.490;9.222;2022-07-04T03:34:38;3.70;;;3.40;;
6485;SDS011;3276;48.490;9.222;2022-07-04T03:37:04;3.67;;;3.43;;
6485;SDS011;3276;48.490;9.222;2022-07-04T03:39:30;5.73;;;3.20;;
6485;SDS011;3276;48.490;9.222;2022-07-04T03:41:55;4.30;;;3.90;;
6485;SDS011;3276;48.490;9.222;2022-07-04T03:44:21;3.37;;;3.17;;
6485;SDS011;3276;48.490;9.222;2022-07-04T03:46:46;4.50;;;3.67;;
6485;SDS011;3276;48.490;9.222;2022-07-04T03:49:12;3.70;;;3.37;;
6485;SDS011;3276;48.490;9.222;2022-07-04T03:51:37;3.60;;;3.30;;
6485;SDS011;3276;48.490;9.222;2022-07-04T03:54:03;3.70;;;3.40;;
6485;SDS011;3276;48.490;9.222;2022-07-04T03:56:28;4.10;;;3.87;;
6485;SDS011;3276;48.490;9.222;2022-07-04T03:58:54;4.57;;;4.20;;
6485;SDS011;3276;48.490;9.222;2022-07-04T04:01:19;6.03;;;5.10;;
6485;SDS011;3276;48.490;9.222;2022-07-04T04:03:45;4.33;;;4.03;;
6485;SDS011;3276;48.490;9.222;2022-07-04T04:06:30;4.00;;;3.57;;
6485;SDS011;3276;48.490;9.222;2022-07-04T04:08:56;4.30;;;3.90;;
6485;SDS011;3276;48.490;9.222;2022-07-04T04:11:22;5.03;;;4.73;;
6485;SDS011;3276;48.490;9.222;2022-07-04T04:13:53;4.87;;;4.47;;
6485;SDS011;3276;48.490;9.222;2022-07-04T04:16:18;4.50;;;4.10;;
6485;SDS011;3276;48.490;9.222;2022-07-04T04:18:44;4.50;;;4.20;;
6485;SDS011;3276;48.490;9.222;2022-07-04T04:21:09;5.23;;;4.73;;
6485;SDS011;3276;48.490;9.222;2022-07-04T04:23:35;4.17;;;3.87;;
6485;SDS011;3276;48.490;9.222;2022-07-04T04:26:00;4.53;;;4.23;;
6485;SDS011;3276;48.490;9.222;2022-07-04T04:28:26;5.20;;;4.83;;
6485;SDS011;3276;48.490;9.222;2022-07-04T04:30:51;4.33;;;4.03;;
6485;SDS011;3276;48.490;9.222;2022-07-04T04:33:17;5.03;;;4.67;;
6485;SDS011;3276;48.490;9.222;2022-07-04T04:35:43;5.50;;;5.10;;
6485;SDS011;3276;48.490;9.222;2022-07-04T04:38:08;5.00;;;4.70;;
6485;SDS011;3276;48.490;9.222;2022-07-04T04:40:34;5.10;;;4.80;;
6485;SDS011;3276;48.490;9.222;2022-07-04T04:42:59;5.37;;;5.07;;
6485;SDS011;3276;48.490;9.222;2022-07-04T04:45:25;6.80;;;5.70;;
6485;SDS011;3276;48.490;9.222;2022-07-04T04:47:50;5.60;;;5.30;;
6485;SDS011;3276;48.490;9.222;2022-07-04T04:50:18;5.20;;;4.90;;
6485;SDS011;3276;48.490;9.222;2022-07-04T04:52:44;5.60;;;5.30;;
6485;SDS011;3276;48.490;9.222;2022-07-04T04:55:10;5.40;;;5.10;;
6485;SDS011;3276;48.490;9.222;2022-07-04T04:57:35;5.70;;;5.30;;
6485;SDS011;3276;48.490;9.222;2022-07-04T05:00:02;5.97;;;5.60;;
6485;SDS011;3276;48.490;9.222;2022-07-04T05:02:31;5.10;;;4.80;;
6485;SDS011;3276;48.490;9.222;2022-07-04T05:04:58;5.03;;;4.63;;
6485;SDS011;3276;48.490;9.222;2022-07-04T05:07:23;5.93;;;5.63;;
6485;SDS011;3276;48.490;9.222;2022-07-04T05:09:49;5.57;;;5.27;;
6485;SDS011;3276;48.490;9.222;2022-07-04T05:12:15;5.80;;;5.40;;
6485;SDS011;3276;48.490;9.222;2022-07-04T05:14:41;6.63;;;6.30;;
6485;SDS011;3276;48.490;9.222;2022-07-04T05:17:07;6.57;;;6.27;;
6485;SDS011;3276;48.490;9.222;2022-07-04T05:19:33;6.77;;;6.27;;
6485;SDS011;3276;48.490;9.222;2022-07-04T05:21:58;6.30;;;5.90;;
6485;SDS011;3276;48.490;9.222;2022-07-04T05:24:24;14.53;;;6.70;;
6485;SDS011;3276;48.490;9.222;2022-07-04T05:26:49;7.90;;;7.40;;
6485;SDS011;3276;48.490;9.222;2022-07-04T05:29:15;6.63;;;6.23;;
6485;SDS011;3276;48.490;9.222;2022-07-04T05:31:41;7.73;;;7.13;;
6485;SDS011;3276;48.490;9.222;2022-07-04T05:34:07;7.40;;;6.80;;
6485;SDS011;3276;48.490;9.222;2022-07-04T05:36:32;7.70;;;7.10;;
6485;SDS011;3276;48.490;9.222;2022-07-04T05:38:58;8.67;;;8.17;;
6485;SDS011;3276;48.490;9.222;2022-07-04T05:41:23;9.00;;;8.20;;
6485;SDS011;3276;48.490;9.222;2022-07-04T05:43:49;9.77;;;9.17;;
6485;SDS011;3276;48.490;9.222;2022-07-04T05:46:15;9.80;;;9.30;;
6485;SDS011;3276;48.490;9.222;2022-07-04T05:48:41;11.20;;;10.50;;
6485;SDS011;3276;48.490;9.222;2022-07-04T05:51:07;11.00;;;10.43;;
6485;SDS011;3276;48.490;9.222;2022-07-04T05:53:32;11.50;;;10.90;;
6485;SDS011;3276;48.490;9.222;2022-07-04T05:55:58;12.20;;;11.60;;
6485;SDS011;3276;48.490;9.222;2022-07-04T05:58:23;12.50;;;12.00;;
6485;SDS011;3276;48.490;9.222;2022-07-04T06:00:49;11.47;;;10.87;;
6485;SDS011;3276;48.490;9.222;2022-07-04T06:03:15;12.73;;;12.03;;
6485;SDS011;3276;48.490;9.222;2022-07-04T06:05:40;11.90;;;11.40;;
6485;SDS011;3276;48.490;9.222;2022-07-04T06:08:06;12.93;;;12.27;;
6485;SDS011;3276;48.490;9.222;2022-07-04T06:10:31;13.40;;;12.70;;
6485;SDS011;3276;48.490;9.222;2022-07-04T06:12:58;13.97;;;13.37;;
6485;SDS011;3276;48.490;9.222;2022-07-04T06:15:24;12.40;;;11.70;;
6485;SDS011;3276;48.490;9.222;2022-07-04T06:17:49;13.27;;;12.60;;
6485;SDS011;3276;48.490;9.222;2022-07-04T06:20:15;11.40;;;10.90;;
6485;SDS011;3276;48.490;9.222;2022-07-04T06:22:41;11.13;;;10.63;;
6485;SDS011;3276;48.490;9.222;2022-07-04T06:25:11;11.40;;;10.90;;
6485;SDS011;3276;48.490;9.222;2022-07-04T06:27:41;10.83;;;10.43;;
6485;SDS011;3276;48.490;9.222;2022-07-04T06:30:07;11.40;;;10.90;;
6485;SDS011;3276;48.490;9.222;2022-07-04T06:32:47;11.60;;;11.03;;
6485;SDS011;3276;48.490;9.222;2022-07-04T06:35:16;11.97;;;11.37;;
6485;SDS011;3276;48.490;9.222;2022-07-04T06:38:02;11.50;;;10.93;;
6485;SDS011;3276;48.490;9.222;2022-07-04T06:40:27;10.33;;;9.93;;
6485;SDS011;3276;48.490;9.222;2022-07-04T06:42:53;10.53;;;10.03;;
6485;SDS011;3276;48.490;9.222;2022-07-04T06:45:19;10.70;;;10.00;;
6485;SDS011;3276;48.490;9.222;2022-07-04T06:47:44;8.93;;;8.43;;
6485;SDS011;3276;48.490;9.222;2022-07-04T06:50:10;9.20;;;8.80;;
6485;SDS011;3276;48.490;9.222;2022-07-04T06:52:36;9.50;;;9.10;;
6485;SDS011;3276;48.490;9.222;2022-07-04T06:55:01;8.73;;;8.30;;
6485;SDS011;3276;48.490;9.222;2022-07-04T06:57:27;10.10;;;9.40;;
6485;SDS011;3276;48.490;9.222;2022-07-04T06:59:52;10.03;;;9.33;;
6485;SDS011;3276;48.490;9.222;2022-07-04T07:02:18;9.83;;;9.23;;
6485;SDS011;3276;48.490;9.222;2022-07-04T07:04:44;9.50;;;8.90;;
6485;SDS011;3276;48.490;9.222;2022-07-04T07:07:09;9.50;;;9.00;;
6485;SDS011;3276;48.490;9.222;2022-07-04T07:09:35;8.60;;;8.17;;
6485;SDS011;3276;48.490;9.222;2022-07-04T07:12:00;7.97;;;7.60;;
6485;SDS011;3276;48.490;9.222;2022-07-04T07:14:27;11.17;;;7.63;;
6485;SDS011;3276;48.490;9.222;2022-07-04T07:16:52;8.70;;;7.93;;
6485;SDS011;3276;48.490;9.222;2022-07-04T07:19:18;7.97;;;7.43;;
6485;SDS011;3276;48.490;9.222;2022-07-04T07:21:43;7.50;;;7.00;;
6485;SDS011;3276;48.490;9.222;2022-07-04T07:24:09;8.57;;;8.07;;
6485;SDS011;3276;48.490;9.222;2022-07-04T07:26:34;7.97;;;7.67;;
6485;SDS011;3276;48.490;9.222;2022-07-04T07:29:00;9.13;;;8.63;;
6485;SDS011;3276;48.490;9.222;2022-07-04T07:31:25;9.23;;;8.60;;
6485;SDS011;3276;48.490;9.222;2022-07-04T07:33:51;8.87;;;8.37;;
6485;SDS011;3276;48.490;9.222;2022-07-04T07:36:17;8.30;;;7.90;;
6485;SDS011;3276;48.490;9.222;2022-07-04T07:38:42;8.73;;;8.03;;
6485;SDS011;3276;48.490;9.222;2022-07-04T07:41:08;7.47;;;7.07;;
6485;SDS011;3276;48.490;9.222;2022-07-04T07:43:35;8.13;;;7.73;;
6485;SDS011;3276;48.490;9.222;2022-07-04T07:46:01;8.17;;;7.63;;
6485;SDS011;3276;48.490;9.222;2022-07-04T07:48:29;13.50;;;11.13;;
6485;SDS011;3276;48.490;9.222;2022-07-04T07:50:55;8.30;;;7.83;;
6485;SDS011;3276;48.490;9.222;2022-07-04T07:53:20;8.70;;;8.20;;
6485;SDS011;3276;48.490;9.222;2022-07-04T07:55:46;9.30;;;8.80;;
6485;SDS011;3276;48.490;9.222;2022-07-04T07:58:11;27.13;;;12.10;;
6485;SDS011;3276;48.490;9.222;2022-07-04T08:00:37;11.07;;;10.37;;
6485;SDS011;3276;48.490;9.222;2022-07-04T08:03:02;11.87;;;11.17;;
6485;SDS011;3276;48.490;9.222;2022-07-04T08:05:47;12.00;;;10.93;;
6485;SDS011;3276;48.490;9.222;2022-07-04T08:08:13;8.83;;;8.30;;
6485;SDS011;3276;48.490;9.222;2022-07-04T08:10:38;8.50;;;8.00;;
6485;SDS011;3276;48.490;9.222;2022-07-04T08:13:04;8.20;;;7.80;;
6485;SDS011;3276;48.490;9.222;2022-07-04T08:15:30;8.83;;;8.23;;
6485;SDS011;3276;48.490;9.222;2022-07-04T08:17:56;8.47;;;7.97;;
6485;SDS011;3276;48.490;9.222;2022-07-04T08:20:22;24.27;;;15.03;;
6485;SDS011;3276;48.490;9.222;2022-07-04T08:22:47;8.70;;;8.30;;
6485;SDS011;3276;48.490;9.222;2022-07-04T08:25:13;9.73;;;9.30;;
6485;SDS011;3276;48.490;9.222;2022-07-04T08:27:39;9.10;;;8.70;;
6485;SDS011;3276;48.490;9.222;2022-07-04T08:30:05;9.90;;;9.40;;
6485;SDS011;3276;48.490;9.222;2022-07-04T08:32:31;12.47;;;11.70;;
6485;SDS011;3276;48.490;9.222;2022-07-04T08:34:57;11.40;;;10.43;;
6485;SDS011;3276;48.490;9.222;2022-07-04T08:37:22;10.90;;;10.40;;
6485;SDS011;3276;48.490;9.222;2022-07-04T08:39:49;10.40;;;9.60;;
6485;SDS011;3276;48.490;9.222;2022-07-04T08:42:19;10.87;;;10.37;;
6485;SDS011;3276;48.490;9.222;2022-07-04T08:44:52;11.07;;;10.47;;
6485;SDS011;3276;48.490;9.222;2022-07-04T08:47:20;12.10;;;11.50;;
6485;SDS011;3276;48.490;9.222;2022-07-04T08:52:41;12.13;;;11.53;;
6485;SDS011;3276;48.490;9.222;2022-07-04T08:55:11;11.73;;;11.03;;
6485;SDS011;3276;48.490;9.222;2022-07-04T08:57:57;11.90;;;10.93;;
6485;SDS011;3276;48.490;9.222;2022-07-04T09:00:41;12.23;;;11.50;;
6485;SDS011;3276;48.490;9.222;2022-07-04T09:03:07;11.60;;;11.13;;
6485;SDS011;3276;48.490;9.222;2022-07-04T09:05:34;12.97;;;12.27;;
6485;SDS011;3276;48.490;9.222;2022-07-04T09:08:00;11.90;;;11.40;;
6485;SDS011;3276;48.490;9.222;2022-07-04T09:10:27;12.30;;;11.40;;
6485;SDS011;3276;48.490;9.222;2022-07-04T09:12:54;11.60;;;11.10;;
6485;SDS011;3276;48.490;9.222;2022-07-04T09:15:19;11.53;;;11.10;;
6485;SDS011;3276;48.490;9.222;2022-07-04T09:17:45;12.23;;;11.63;;
6485;SDS011;3276;48.490;9.222;2022-07-04T09:20:12;12.80;;;12.17;;
6485;SDS011;3276;48.490;9.222;2022-07-04T09:22:38;13.90;;;12.77;;
6485;SDS011;3276;48.490;9.222;2022-07-04T09:25:04;12.00;;;11.50;;
6485;SDS011;3276;48.490;9.222;2022-07-04T09:30:01;12.03;;;11.53;;
6485;SDS011;3276;48.490;9.222;2022-07-04T09:32:34;13.50;;;12.70;;
6485;SDS011;3276;48.490;9.222;2022-07-04T09:35:02;12.37;;;11.87;;
6485;SDS011;3276;48.490;9.222;2022-07-04T09:40:28;11.77;;;11.27;;
6485;SDS011;3276;48.490;9.222;2022-07-04T09:42:59;12.43;;;11.93;;
6485;SDS011;3276;48.490;9.222;2022-07-04T09:45:35;13.50;;;12.60;;
6485;SDS011;3276;48.490;9.222;2022-07-04T09:48:17;14.10;;;13.27;;
6485;SDS011;3276;48.490;9.222;2022-07-04T09:50:42;13.40;;;12.80;;
6485;SDS011;3276;48.490;9.222;2022-07-04T09:53:08;12.47;;;11.90;;
6485;SDS011;3276;48.490;9.222;2022-07-04T09:55:35;11.80;;;11.30;;
6485;SDS011;3276;48.490;9.222;2022-07-04T09:58:06;12.90;;;12.30;;
6485;SDS011;3276;48.490;9.222;2022-07-04T10:00:33;12.77;;;12.17;;
6485;SDS011;3276;48.490;9.222;2022-07-04T10:05:44;11.90;;;11.40;;
6485;SDS011;3276;48.490;9.222;2022-07-04T10:08:11;12.63;;;12.13;;
6485;SDS011;3276;48.490;9.222;2022-07-04T10:10:37;13.17;;;12.50;;
6485;SDS011;3276;48.490;9.222;2022-07-04T10:13:09;12.90;;;11.87;;
6485;SDS011;3276;48.490;9.222;2022-07-04T10:15:38;12.40;;;11.90;;
6485;SDS011;3276;48.490;9.222;2022-07-04T10:18:05;12.63;;;12.13;;
6485;SDS011;3276;48.490;9.222;2022-07-04T10:20:33;12.80;;;12.30;;
6485;SDS011;3276;48.490;9.222;2022-07-04T10:22:59;13.00;;;12.40;;
6485;SDS011;3276;48.490;9.222;2022-07-04T10:25:25;12.47;;;11.97;;
6485;SDS011;3276;48.490;9.222;2022-07-04T10:27:51;13.30;;;12.70;;
6485;SDS011;3276;48.490;9.222;2022-07-04T10:30:20;9.50;;;9.00;;
6485;SDS011;3276;48.490;9.222;2022-07-04T10:32:48;12.13;;;11.60;;
6485;SDS011;3276;48.490;9.222;2022-07-04T10:35:15;12.07;;;11.57;;
6485;SDS011;3276;48.490;9.222;2022-07-04T10:38:00;11.40;;;10.90;;
6485;SDS011;3276;48.490;9.222;2022-07-04T10:40:43;11.47;;;10.97;;
6485;SDS011;3276;48.490;9.222;2022-07-04T10:45:55;10.97;;;10.50;;
6485;SDS011;3276;48.490;9.222;2022-07-04T10:48:22;11.40;;;10.90;;
6485;SDS011;3276;48.490;9.222;2022-07-04T10:53:59;11.20;;;10.70;;
6485;SDS011;3276;48.490;9.222;2022-07-04T10:58:53;12.03;;;11.50;;
6485;SDS011;3276;48.490;9.222;2022-07-04T11:01:20;11.90;;;11.30;;
6485;SDS011;3276;48.490;9.222;2022-07-04T11:03:46;12.40;;;11.47;;
6485;SDS011;3276;48.490;9.222;2022-07-04T11:09:16;11.73;;;11.23;;
6485;SDS011;3276;48.490;9.222;2022-07-04T11:11:48;11.93;;;11.43;;
6485;SDS011;3276;48.490;9.222;2022-07-04T11:14:34;12.13;;;11.43;;
6485;SDS011;3276;48.490;9.222;2022-07-04T11:17:09;12.93;;;12.13;;
6485;SDS011;3276;48.490;9.222;2022-07-04T11:19:39;12.37;;;11.77;;
6485;SDS011;3276;48.490;9.222;2022-07-04T11:22:06;12.20;;;11.70;;
6485;SDS011;3276;48.490;9.222;2022-07-04T11:24:33;11.43;;;10.93;;
6485;SDS011;3276;48.490;9.222;2022-07-04T11:26:59;12.07;;;11.57;;
6485;SDS011;3276;48.490;9.222;2022-07-04T11:29:25;11.13;;;10.73;;
6485;SDS011;3276;48.490;9.222;2022-07-04T11:31:51;11.80;;;11.20;;
6485;SDS011;3276;48.490;9.222;2022-07-04T11:34:18;12.17;;;11.57;;
6485;SDS011;3276;48.490;9.222;2022-07-04T11:36:45;12.27;;;11.70;;
6485;SDS011;3276;48.490;9.222;2022-07-04T11:39:13;12.50;;;11.80;;
6485;SDS011;3276;48.490;9.222;2022-07-04T11:41:44;13.07;;;12.27;;
6485;SDS011;3276;48.490;9.222;2022-07-04T11:44:30;11.83;;;11.33;;
6485;SDS011;3276;48.490;9.222;2022-07-04T11:47:20;12.00;;;11.30;;
6485;SDS011;3276;48.490;9.222;2022-07-04T11:49:50;12.40;;;11.70;;
6485;SDS011;3276;48.490;9.222;2022-07-04T11:52:27;13.20;;;12.30;;
6485;SDS011;3276;48.490;9.222;2022-07-04T11:54:54;13.10;;;12.23;;
6485;SDS011;3276;48.490;9.222;2022-07-04T11:57:24;11.27;;;10.87;;
6485;SDS011;3276;48.490;9.222;2022-07-04T12:02:20;12.43;;;11.50;;
6485;SDS011;3276;48.490;9.222;2022-07-04T12:04:46;12.63;;;12.03;;
6485;SDS011;3276;48.490;9.222;2022-07-04T12:07:12;12.37;;;11.77;;
6485;SDS011;3276;48.490;9.222;2022-07-04T12:09:39;13.03;;;12.43;;
6485;SDS011;3276;48.490;9.222;2022-07-04T12:12:06;11.90;;;11.40;;
6485;SDS011;3276;48.490;9.222;2022-07-04T12:14:32;11.60;;;11.10;;
6485;SDS011;3276;48.490;9.222;2022-07-04T12:17:10;12.00;;;11.50;;
6485;SDS011;3276;48.490;9.222;2022-07-04T12:19:37;11.70;;;11.10;;
6485;SDS011;3276;48.490;9.222;2022-07-04T12:22:03;11.13;;;10.60;;
6485;SDS011;3276;48.490;9.222;2022-07-04T12:24:38;11.27;;;10.67;;
6485;SDS011;3276;48.490;9.222;2022-07-04T12:27:15;12.60;;;12.00;;
6485;SDS011;3276;48.490;9.222;2022-07-04T12:29:48;11.63;;;11.13;;
6485;SDS011;3276;48.490;9.222;2022-07-04T12:32:15;11.77;;;11.17;;
6485;SDS011;3276;48.490;9.222;2022-07-04T12:34:41;11.53;;;11.03;;
6485;SDS011;3276;48.490;9.222;2022-07-04T12:37:08;13.20;;;12.20;;
6485;SDS011;3276;48.490;9.222;2022-07-04T12:39:35;12.20;;;11.50;;
6485;SDS011;3276;48.490;9.222;2022-07-04T12:42:03;11.53;;;11.03;;
6485;SDS011;3276;48.490;9.222;2022-07-04T12:44:34;12.17;;;11.50;;
6485;SDS011;3276;48.490;9.222;2022-07-04T12:46:59;12.77;;;12.07;;
6485;SDS011;3276;48.490;9.222;2022-07-04T12:49:26;12.50;;;12.00;;
6485;SDS011;3276;48.490;9.222;2022-07-04T12:51:51;12.40;;;11.70;;
6485;SDS011;3276;48.490;9.222;2022-07-04T12:54:27;12.10;;;11.60;;
6485;SDS011;3276;48.490;9.222;2022-07-04T12:57:01;11.80;;;11.10;;
6485;SDS011;3276;48.490;9.222;2022-07-04T12:59:33;12.37;;;11.87;;
6485;SDS011;3276;48.490;9.222;2022-07-04T13:01:59;11.87;;;11.47;;
6485;SDS011;3276;48.490;9.222;2022-07-04T13:04:24;11.60;;;11.10;;
6485;SDS011;3276;48.490;9.222;2022-07-04T13:06:50;12.10;;;11.50;;
6485;SDS011;3276;48.490;9.222;2022-07-04T13:09:16;11.40;;;10.80;;
6485;SDS011;3276;48.490;9.222;2022-07-04T13:11:41;12.03;;;11.33;;
6485;SDS011;3276;48.490;9.222;2022-07-04T13:14:25;12.17;;;11.53;;
6485;SDS011;3276;48.490;9.222;2022-07-04T13:16:51;12.13;;;11.53;;
6485;SDS011;3276;48.490;9.222;2022-07-04T13:19:16;12.70;;;11.80;;
6485;SDS011;3276;48.490;9.222;2022-07-04T13:21:42;11.97;;;11.37;;
6485;SDS011;3276;48.490;9.222;2022-07-04T13:24:08;11.87;;;11.10;;
6485;SDS011;3276;48.490;9.222;2022-07-04T13:26:34;12.43;;;11.63;;
6485;SDS011;3276;48.490;9.222;2022-07-04T13:29:00;12.40;;;11.83;;
6485;SDS011;3276;48.490;9.222;2022-07-04T13:31:28;11.77;;;11.27;;
6485;SDS011;3276;48.490;9.222;2022-07-04T13:33:54;11.83;;;11.13;;
6485;SDS011;3276;48.490;9.222;2022-07-04T13:36:20;11.77;;;11.27;;
6485;SDS011;3276;48.490;9.222;2022-07-04T13:38:46;12.17;;;11.67;;
6485;SDS011;3276;48.490;9.222;2022-07-04T13:41:11;12.40;;;11.90;;
6485;SDS011;3276;48.490;9.222;2022-07-04T13:43:37;12.00;;;11.50;;
6485;SDS011;3276;48.490;9.222;2022-07-04T13:46:03;12.63;;;12.07;;
6485;SDS011;3276;48.490;9.222;2022-07-04T13:48:29;13.00;;;12.13;;
6485;SDS011;3276;48.490;9.222;2022-07-04T13:50:55;13.40;;;12.80;;
6485;SDS011;3276;48.490;9.222;2022-07-04T13:53:20;12.50;;;11.90;;
6485;SDS011;3276;48.490;9.222;2022-07-04T13:55:46;12.47;;;11.87;;
6485;SDS011;3276;48.490;9.222;2022-07-04T13:58:12;12.30;;;11.80;;
6485;SDS011;3276;48.490;9.222;2022-07-04T14:00:38;13.00;;;12.30;;
6485;SDS011;3276;48.490;9.222;2022-07-04T14:03:06;12.73;;;12.23;;
6485;SDS011;3276;48.490;9.222;2022-07-04T14:05:32;13.37;;;12.67;;
6485;SDS011;3276;48.490;9.222;2022-07-04T14:07:58;14.33;;;13.37;;
6485;SDS011;3276;48.490;9.222;2022-07-04T14:10:24;12.40;;;11.57;;
6485;SDS011;3276;48.490;9.222;2022-07-04T14:12:50;13.50;;;12.90;;
6485;SDS011;3276;48.490;9.222;2022-07-04T14:15:16;12.93;;;12.43;;
6485;SDS011;3276;48.490;9.222;2022-07-04T14:17:41;13.10;;;12.50;;
6485;SDS011;3276;48.490;9.222;2022-07-04T14:20:08;13.50;;;12.90;;
6485;SDS011;3276;48.490;9.222;2022-07-04T14:22:35;12.60;;;12.10;;
6485;SDS011;3276;48.490;9.222;2022-07-04T14:25:01;13.10;;;12.60;;
6485;SDS011;3276;48.490;9.222;2022-07-04T14:27:27;13.30;;;12.70;;
6485;SDS011;3276;48.490;9.222;2022-07-04T14:29:53;13.07;;;12.47;;
6485;SDS011;3276;48.490;9.222;2022-07-04T14:32:18;13.50;;;12.90;;
6485;SDS011;3276;48.490;9.222;2022-07-04T14:34:44;13.63;;;13.03;;
6485;SDS011;3276;48.490;9.222;2022-07-04T14:37:10;13.43;;;12.83;;
6485;SDS011;3276;48.490;9.222;2022-07-04T14:39:35;13.20;;;12.57;;
6485;SDS011;3276;48.490;9.222;2022-07-04T14:42:01;14.20;;;13.60;;
6485;SDS011;3276;48.490;9.222;2022-07-04T14:44:27;13.40;;;12.90;;
6485;SDS011;3276;48.490;9.222;2022-07-04T14:46:53;13.30;;;12.80;;
6485;SDS011;3276;48.490;9.222;2022-07-04T14:49:22;14.30;;;13.50;;
6485;SDS011;3276;48.490;9.222;2022-07-04T14:51:51;14.40;;;13.87;;
6485;SDS011;3276;48.490;9.222;2022-07-04T14:54:17;14.20;;;13.70;;
6485;SDS011;3276;48.490;9.222;2022-07-04T14:56:43;14.53;;;13.60;;
6485;SDS011;3276;48.490;9.222;2022-07-04T14:59:09;13.17;;;12.67;;
6485;SDS011;3276;48.490;9.222;2022-07-04T15:01:34;14.50;;;13.73;;
6485;SDS011;3276;48.490;9.222;2022-07-04T15:04:00;13.83;;;13.23;;
6485;SDS011;3276;48.490;9.222;2022-07-04T15:06:25;14.90;;;14.10;;
6485;SDS011;3276;48.490;9.222;2022-07-04T15:08:51;14.60;;;13.80;;
6485;SDS011;3276;48.490;9.222;2022-07-04T15:11:17;14.10;;;13.50;;
6485;SDS011;3276;48.490;9.222;2022-07-04T15:13:43;15.03;;;14.43;;
6485;SDS011;3276;48.490;9.222;2022-07-04T15:16:08;14.83;;;14.20;;
6485;SDS011;3276;48.490;9.222;2022-07-04T15:18:34;14.87;;;14.10;;
6485;SDS011;3276;48.490;9.222;2022-07-04T15:20:59;15.40;;;14.67;;
6485;SDS011;3276;48.490;9.222;2022-07-04T15:23:43;14.33;;;13.83;;
6485;SDS011;3276;48.490;9.222;2022-07-04T15:26:28;15.50;;;14.70;;